createdAt,value
2018-05-23T00:01:02.946Z,101301.77
2018-05-23T00:03:29.601Z,101295.38
2018-05-23T00:05:55.456Z,101293.63
2018-05-23T00:08:21.433Z,101302.87
2018-05-23T00:10:47.232Z,101298.34
2018-05-23T00:13:13.933Z,101301.84
2018-05-23T00:15:39.736Z,101307.84
2018-05-23T00:18:06.455Z,101291.83
2018-05-23T00:20:32.256Z,101296.83
2018-05-23T00:22:59.047Z,101290.20
2018-05-23T00:25:25.645Z,101296.53
2018-05-23T00:27:51.482Z,101295.02
2018-05-23T00:30:17.428Z,101302.00
2018-05-23T00:32:43.353Z,101307.97
2018-05-23T00:35:09.265Z,101312.14
2018-05-23T00:37:36.120Z,101314.27
2018-05-23T00:40:02.896Z,101312.94
2018-05-23T00:42:28.733Z,101318.14
2018-05-23T00:44:55.359Z,101316.82
2018-05-23T00:47:21.301Z,101315.14
2018-05-23T00:49:48.208Z,101318.08
2018-05-23T00:52:14.879Z,101312.95
2018-05-23T00:54:46.764Z,101314.55
2018-05-23T00:57:13.620Z,101315.95
2018-05-23T00:59:40.248Z,101321.30
2018-05-23T01:02:06.948Z,101321.85
2018-05-23T01:04:32.801Z,101315.88
2018-05-23T01:06:59.464Z,101318.39
2018-05-23T01:09:26.404Z,101319.72
2018-05-23T01:11:53.225Z,101324.15
2018-05-23T01:14:19.144Z,101323.11
2018-05-23T01:16:44.985Z,101327.02
2018-05-23T01:19:10.883Z,101325.63
2018-05-23T01:21:36.735Z,101332.37
2018-05-23T01:24:02.542Z,101334.19
2018-05-23T01:26:29.263Z,101333.50
2018-05-23T01:28:56.026Z,101337.96
2018-05-23T01:31:22.627Z,101333.44
2018-05-23T01:33:49.385Z,101342.77
2018-05-23T01:36:16.153Z,101338.94
2018-05-23T01:38:42.972Z,101341.16
2018-05-23T01:41:08.772Z,101343.47
2018-05-23T01:43:34.641Z,101342.64
2018-05-23T01:46:00.436Z,101344.28
2018-05-23T01:48:32.308Z,101347.91
2018-05-23T01:50:59.076Z,101352.74
2018-05-23T01:53:24.924Z,101355.02
2018-05-23T01:55:50.724Z,101349.27
2018-05-23T01:58:16.576Z,101346.94
2018-05-23T02:00:42.376Z,101350.51
2018-05-23T02:03:08.172Z,101355.25
2018-05-23T02:05:33.973Z,101351.55
2018-05-23T02:07:59.774Z,101351.42
2018-05-23T02:10:26.374Z,101348.97
2018-05-23T02:12:53.128Z,101353.08
2018-05-23T02:15:18.929Z,101349.87
2018-05-23T02:17:44.731Z,101361.18
2018-05-23T02:20:10.536Z,101354.83
2018-05-23T02:22:36.402Z,101356.50
2018-05-23T02:25:02.204Z,101355.95
2018-05-23T02:27:28.005Z,101360.31
2018-05-23T02:29:53.808Z,101359.14
2018-05-23T02:32:19.617Z,101362.98
2018-05-23T02:34:45.423Z,101360.17
2018-05-23T02:37:11.252Z,101357.17
2018-05-23T02:39:37.052Z,101367.94
2018-05-23T02:42:03.830Z,101365.55
2018-05-23T02:44:29.628Z,101365.98
2018-05-23T02:46:55.784Z,101365.50
2018-05-23T02:49:21.596Z,101370.64
2018-05-23T02:51:47.396Z,101373.83
2018-05-23T02:54:13.196Z,101373.98
2018-05-23T02:56:39.001Z,101377.39
2018-05-23T02:59:04.957Z,101377.05
2018-05-23T03:01:30.756Z,101371.67
2018-05-23T03:03:57.348Z,101376.90
2018-05-23T03:06:23.242Z,101374.73
2018-05-23T03:08:49.036Z,101386.02
2018-05-23T03:11:14.874Z,101381.03
2018-05-23T03:13:41.572Z,101388.06
2018-05-23T03:16:07.372Z,101391.87
2018-05-23T03:18:33.324Z,101391.59
2018-05-23T03:20:59.178Z,101394.86
2018-05-23T03:23:24.982Z,101400.30
2018-05-23T03:25:50.850Z,101401.94
2018-05-23T03:28:16.652Z,101408.53
2018-05-23T03:30:42.452Z,101412.98
2018-05-23T03:33:08.301Z,101414.41
2018-05-23T03:35:34.100Z,101414.79
2018-05-23T03:37:59.989Z,101414.74
2018-05-23T03:40:25.793Z,101414.80
2018-05-23T03:42:51.592Z,101415.91
2018-05-23T03:45:17.395Z,101421.14
2018-05-23T03:47:43.196Z,101423.45
2018-05-23T03:50:09.865Z,101423.89
2018-05-23T03:52:36.513Z,101437.91
2018-05-23T03:55:02.370Z,101430.14
2018-05-23T03:57:28.168Z,101439.35
2018-05-23T04:00:00.165Z,101439.59
2018-05-23T04:02:32.268Z,101446.09
2018-05-23T04:05:04.313Z,101445.61
2018-05-23T04:07:30.128Z,101451.19
2018-05-23T04:09:55.972Z,101450.20
2018-05-23T04:12:21.772Z,101448.48
2018-05-23T04:14:48.457Z,101444.49
2018-05-23T04:17:14.300Z,101451.17
2018-05-23T04:19:40.973Z,101453.41
2018-05-23T04:22:07.734Z,101463.70
2018-05-23T04:24:33.605Z,101462.11
2018-05-23T04:27:00.199Z,101462.33
2018-05-23T04:29:26.036Z,101468.06
2018-05-23T04:31:51.884Z,101463.85
2018-05-23T04:34:17.688Z,101474.02
2018-05-23T04:36:44.548Z,101472.85
2018-05-23T04:39:11.216Z,101479.73
2018-05-23T04:41:37.026Z,101471.67
2018-05-23T04:44:04.017Z,101482.53
2018-05-23T04:46:30.744Z,101478.92
2018-05-23T04:48:57.540Z,101479.70
2018-05-23T04:51:23.341Z,101479.73
2018-05-23T04:53:49.143Z,101482.20
2018-05-23T04:56:15.959Z,101485.67
2018-05-23T04:58:42.807Z,101488.50
2018-05-23T05:01:08.609Z,101494.13
2018-05-23T05:03:34.416Z,101495.60
2018-05-23T05:06:00.248Z,101494.29
2018-05-23T05:08:26.057Z,101505.45
2018-05-23T05:10:51.892Z,101502.75
2018-05-23T05:13:17.816Z,101504.86
2018-05-23T05:15:43.617Z,101514.77
2018-05-23T05:18:10.435Z,101513.28
2018-05-23T05:20:37.314Z,101516.29
2018-05-23T05:23:03.116Z,101519.43
2018-05-23T05:25:28.917Z,101519.56
2018-05-23T05:27:54.893Z,101519.43
2018-05-23T05:30:21.672Z,101521.59
2018-05-23T05:32:47.481Z,101521.44
2018-05-23T05:35:13.288Z,101528.84
2018-05-23T05:37:39.962Z,101530.88
2018-05-23T05:40:05.962Z,101528.36
2018-05-23T05:42:32.740Z,101531.78
2018-05-23T05:44:58.701Z,101543.09
2018-05-23T05:47:25.312Z,101536.17
2018-05-23T05:49:51.114Z,101550.47
2018-05-23T05:52:17.077Z,101554.31
2018-05-23T05:54:42.873Z,101552.21
2018-05-23T05:57:09.253Z,101554.73
2018-05-23T05:59:35.116Z,101560.95
2018-05-23T06:02:01.048Z,101555.28
2018-05-23T06:04:26.812Z,101566.73
2018-05-23T06:06:52.608Z,101568.41
2018-05-23T06:09:18.422Z,101574.84
2018-05-23T06:11:44.224Z,101576.36
2018-05-23T06:14:10.024Z,101578.17
2018-05-23T06:16:35.820Z,101576.01
2018-05-23T06:19:01.613Z,101586.67
2018-05-23T06:21:27.409Z,101574.62
2018-05-23T06:23:53.204Z,101585.84
2018-05-23T06:26:19.005Z,101591.48
2018-05-23T06:28:44.804Z,101597.38
2018-05-23T06:31:10.644Z,101591.78
2018-05-23T06:33:36.485Z,101598.25
2018-05-23T06:36:02.282Z,101592.05
2018-05-23T06:38:28.116Z,101596.47
2018-05-23T06:40:54.781Z,101595.47
2018-05-23T06:43:20.636Z,101599.25
2018-05-23T06:45:46.439Z,101605.45
2018-05-23T06:48:12.244Z,101605.23
2018-05-23T06:50:38.040Z,101605.72
2018-05-23T06:53:03.907Z,101600.00
2018-05-23T06:55:29.828Z,101601.06
2018-05-23T06:57:55.672Z,101607.14
2018-05-23T07:00:21.611Z,101608.95
2018-05-23T07:02:47.418Z,101604.67
2018-05-23T07:05:13.272Z,101603.91
2018-05-23T07:07:39.069Z,101607.20
2018-05-23T07:10:04.878Z,101607.97
2018-05-23T07:12:31.221Z,101609.20
2018-05-23T07:14:57.033Z,101610.89
2018-05-23T07:17:22.841Z,101611.95
2018-05-23T07:19:48.646Z,101611.18
2018-05-23T07:22:14.500Z,101611.51
2018-05-23T07:24:41.184Z,101615.84
2018-05-23T07:27:07.857Z,101618.55
2018-05-23T07:29:33.671Z,101614.50
2018-05-23T07:31:59.472Z,101617.81
2018-05-23T07:34:25.357Z,101613.33
2018-05-23T07:36:51.190Z,101612.69
2018-05-23T07:39:17.036Z,101618.29
2018-05-23T07:41:42.841Z,101615.14
2018-05-23T07:44:08.684Z,101620.10
2018-05-23T07:46:34.476Z,101623.87
2018-05-23T07:49:00.272Z,101624.55
2018-05-23T07:51:26.080Z,101627.65
2018-05-23T07:53:52.719Z,101628.55
2018-05-23T07:56:19.517Z,101623.37
2018-05-23T07:58:45.315Z,101624.58
2018-05-23T08:01:11.179Z,101625.67
2018-05-23T08:03:37.792Z,101630.19
2018-05-23T08:06:04.536Z,101625.31
2018-05-23T08:08:30.396Z,101628.80
2018-05-23T08:10:56.236Z,101627.70
2018-05-23T08:13:22.032Z,101623.66
2018-05-23T08:15:48.760Z,101632.84
2018-05-23T08:18:15.509Z,101623.78
2018-05-23T08:20:41.362Z,101632.17
2018-05-23T08:23:07.157Z,101626.70
2018-05-23T08:25:32.952Z,101629.20
2018-05-23T08:27:58.761Z,101633.48
2018-05-23T08:30:24.566Z,101640.16
2018-05-23T08:32:50.405Z,101637.88
2018-05-23T08:35:17.199Z,101638.42
2018-05-23T08:37:43.000Z,101640.80
2018-05-23T08:40:09.663Z,101639.48
2018-05-23T08:42:36.405Z,101645.20
2018-05-23T08:45:02.237Z,101645.56
2018-05-23T08:47:28.128Z,101636.61
2018-05-23T08:49:53.928Z,101647.58
2018-05-23T08:52:19.729Z,101648.33
2018-05-23T08:54:45.528Z,101640.23
2018-05-23T08:57:11.328Z,101639.84
2018-05-23T08:59:37.127Z,101642.67
2018-05-23T09:02:03.790Z,101645.89
2018-05-23T09:04:29.684Z,101647.64
2018-05-23T09:06:55.487Z,101653.72
2018-05-23T09:09:22.177Z,101646.95
2018-05-23T09:11:47.971Z,101648.59
2018-05-23T09:14:13.768Z,101655.50
2018-05-23T09:16:39.565Z,101652.70
2018-05-23T09:19:05.373Z,101652.64
2018-05-23T09:21:32.124Z,101655.23
2018-05-23T09:23:57.930Z,101652.22
2018-05-23T09:26:24.708Z,101646.43
2018-05-23T09:28:51.340Z,101645.95
2018-05-23T09:31:17.222Z,101655.30
2018-05-23T09:33:43.852Z,101659.76
2018-05-23T09:36:09.652Z,101657.33
2018-05-23T09:38:35.456Z,101651.31
2018-05-23T09:41:01.248Z,101656.55
2018-05-23T09:43:27.040Z,101654.16
2018-05-23T09:45:52.839Z,101658.17
2018-05-23T09:48:18.669Z,101652.63
2018-05-23T09:50:44.468Z,101662.46
2018-05-23T09:53:10.269Z,101661.17
2018-05-23T09:55:36.899Z,101676.30
2018-05-23T09:58:02.701Z,101661.59
2018-05-23T10:00:28.540Z,101659.69
2018-05-23T10:02:54.342Z,101661.86
2018-05-23T10:05:20.184Z,101661.56
2018-05-23T10:07:46.911Z,101659.00
2018-05-23T10:10:12.749Z,101657.03
2018-05-23T10:12:38.544Z,101650.56
2018-05-23T10:15:04.341Z,101664.37
2018-05-23T10:17:30.144Z,101664.17
2018-05-23T10:19:55.949Z,101666.59
2018-05-23T10:22:21.757Z,101662.12
2018-05-23T10:24:47.561Z,101673.58
2018-05-23T10:27:13.368Z,101664.50
2018-05-23T10:29:39.176Z,101679.62
2018-05-23T10:32:05.839Z,101683.50
2018-05-23T10:34:31.648Z,101675.81
2018-05-23T10:36:57.660Z,101676.16
2018-05-23T10:39:23.623Z,101677.26
2018-05-23T10:41:49.429Z,101681.59
2018-05-23T10:44:16.014Z,101678.45
2018-05-23T10:46:41.812Z,101670.58
2018-05-23T10:49:07.604Z,101679.16
2018-05-23T10:51:33.674Z,101687.48
2018-05-23T10:53:59.469Z,101682.84
2018-05-23T10:56:25.268Z,101679.23
2018-05-23T10:58:51.064Z,101684.11
2018-05-23T11:01:16.860Z,101674.20
2018-05-23T11:03:42.705Z,101676.52
2018-05-23T11:06:08.501Z,101672.38
2018-05-23T11:08:34.337Z,101669.98
2018-05-23T11:11:00.992Z,101672.22
2018-05-23T11:13:26.792Z,101663.78
2018-05-23T11:15:53.615Z,101669.73
2018-05-23T11:18:20.407Z,101673.69
2018-05-23T11:20:47.124Z,101670.22
2018-05-23T11:23:12.968Z,101662.25
2018-05-23T11:25:39.614Z,101665.73
2018-05-23T11:28:06.502Z,101666.50
2018-05-23T11:30:33.118Z,101662.52
2018-05-23T11:32:59.779Z,101655.56
2018-05-23T11:35:26.545Z,101658.97
2018-05-23T11:37:52.352Z,101656.91
2018-05-23T11:40:18.756Z,101663.03
2018-05-23T11:42:44.595Z,101660.46
2018-05-23T11:45:10.396Z,101655.08
2018-05-23T11:47:36.241Z,101651.52
2018-05-23T11:50:02.037Z,101656.19
2018-05-23T11:52:27.980Z,101656.89
2018-05-23T11:54:53.779Z,101658.97
2018-05-23T11:57:19.658Z,101653.17
2018-05-23T11:59:45.464Z,101648.23
2018-05-23T12:02:11.324Z,101648.02
2018-05-23T12:04:37.120Z,101649.77
2018-05-23T12:07:02.973Z,101648.66
2018-05-23T12:09:28.773Z,101644.24
2018-05-23T12:11:54.569Z,101657.45
2018-05-23T12:14:21.223Z,101643.63
2018-05-23T12:16:47.028Z,101654.78
2018-05-23T12:19:12.872Z,101644.73
2018-05-23T12:21:38.664Z,101650.27
2018-05-23T12:24:04.460Z,101640.41
2018-05-23T12:26:31.281Z,101649.62
2018-05-23T12:28:57.116Z,101643.81
2018-05-23T12:31:22.916Z,101637.89
2018-05-23T12:33:48.707Z,101645.01
2018-05-23T12:36:14.505Z,101641.27
2018-05-23T12:38:40.359Z,101643.56
2018-05-23T12:41:06.206Z,101640.00
2018-05-23T12:43:32.006Z,101648.94
2018-05-23T12:45:57.821Z,101642.85
2018-05-23T12:48:23.620Z,101641.40
2018-05-23T12:50:49.420Z,101647.11
2018-05-23T12:53:15.256Z,101643.13
2018-05-23T12:55:41.989Z,101647.23
2018-05-23T12:58:08.786Z,101644.52
2018-05-23T13:00:34.594Z,101641.93
2018-05-23T13:03:01.401Z,101646.20
2018-05-23T13:05:27.257Z,101639.56
2018-05-23T13:07:53.151Z,101640.42
2018-05-23T13:10:19.958Z,101639.34
2018-05-23T13:12:46.962Z,101634.08
2018-05-23T13:15:12.929Z,101637.34
2018-05-23T13:17:39.682Z,101640.67
2018-05-23T13:20:06.512Z,101639.44
2018-05-23T13:22:32.308Z,101642.70
2018-05-23T13:24:58.167Z,101644.51
2018-05-23T13:27:24.924Z,101628.55
2018-05-23T13:29:50.724Z,101626.95
2018-05-23T13:32:17.453Z,101631.75
2018-05-23T13:34:44.248Z,101630.36
2018-05-23T13:37:11.008Z,101629.58
2018-05-23T13:39:36.864Z,101622.89
2018-05-23T13:42:02.660Z,101619.46
2018-05-23T13:44:28.455Z,101617.19
2018-05-23T13:46:54.252Z,101615.84
2018-05-23T13:49:20.048Z,101615.65
2018-05-23T13:51:46.876Z,101609.85
2018-05-23T13:54:12.676Z,101617.87
2018-05-23T13:56:38.473Z,101609.56
2018-05-23T13:59:04.301Z,101607.42
2018-05-23T14:01:31.077Z,101602.93
2018-05-23T14:03:56.884Z,101606.56
2018-05-23T14:06:22.681Z,101603.99
2018-05-23T14:08:48.484Z,101597.77
2018-05-23T14:11:14.281Z,101604.97
2018-05-23T14:13:41.012Z,101605.52
2018-05-23T14:16:06.816Z,101605.33
2018-05-23T14:18:32.740Z,101602.80
2018-05-23T14:20:59.501Z,101599.45
2018-05-23T14:23:25.320Z,101604.00
2018-05-23T14:25:52.021Z,101598.20
2018-05-23T14:28:17.821Z,101597.98
2018-05-23T14:30:44.480Z,101597.50
2018-05-23T14:33:10.294Z,101593.72
2018-05-23T14:35:36.957Z,101595.40
2018-05-23T14:38:03.728Z,101599.23
2018-05-23T14:40:30.500Z,101595.63
2018-05-23T14:42:56.300Z,101596.79
2018-05-23T14:45:22.097Z,101592.84
2018-05-23T14:47:47.899Z,101599.45
2018-05-23T14:50:13.703Z,101589.67
2018-05-23T14:52:39.552Z,101598.67
2018-05-23T14:55:05.358Z,101600.00
2018-05-23T14:57:31.178Z,101600.28
2018-05-23T14:59:56.989Z,101600.86
2018-05-23T15:02:22.897Z,101599.80
2018-05-23T15:04:48.742Z,101593.33
2018-05-23T15:07:15.448Z,101599.31
2018-05-23T15:09:41.323Z,101599.19
2018-05-23T15:12:07.125Z,101602.67
2018-05-23T15:14:34.106Z,101604.35
2018-05-23T15:17:00.906Z,101595.20
2018-05-23T15:19:26.706Z,101590.80
2018-05-23T15:21:52.510Z,101600.70
2018-05-23T15:24:18.318Z,101604.61
2018-05-23T15:26:44.157Z,101599.94
2018-05-23T15:29:09.953Z,101596.53
2018-05-23T15:31:35.839Z,101593.33
2018-05-23T15:34:01.589Z,101591.30
2018-05-23T15:36:27.463Z,101596.66
2018-05-23T15:38:53.270Z,101595.63
2018-05-23T15:41:19.068Z,101594.08
2018-05-23T15:43:44.880Z,101584.66
2018-05-23T15:46:10.680Z,101585.08
2018-05-23T15:48:36.471Z,101590.16
2018-05-23T15:51:02.321Z,101592.42
2018-05-23T15:53:28.125Z,101590.02
2018-05-23T15:55:53.925Z,101589.13
2018-05-23T15:58:19.720Z,101586.05
2018-05-23T16:00:45.532Z,101588.91
2018-05-23T16:03:11.328Z,101592.31
2018-05-23T16:05:37.180Z,101584.89
2018-05-23T16:08:03.829Z,101590.52
2018-05-23T16:10:29.677Z,101586.41
2018-05-23T16:12:55.479Z,101594.00
2018-05-23T16:15:21.277Z,101586.35
2018-05-23T16:17:47.077Z,101591.09
2018-05-23T16:20:13.681Z,101586.31
2018-05-23T16:22:40.494Z,101588.41
2018-05-23T16:25:07.253Z,101597.00
2018-05-23T16:27:34.073Z,101598.41
2018-05-23T16:29:59.872Z,101592.73
2018-05-23T16:32:26.577Z,101596.39
2018-05-23T16:34:53.393Z,101601.48
2018-05-23T16:37:20.012Z,101597.61
2018-05-23T16:39:45.807Z,101596.52
2018-05-23T16:42:12.400Z,101602.44
2018-05-23T16:44:38.243Z,101589.47
2018-05-23T16:47:05.029Z,101591.44
2018-05-23T16:49:30.867Z,101593.19
2018-05-23T16:51:56.797Z,101593.33
2018-05-23T16:54:23.465Z,101594.09
2018-05-23T16:56:49.312Z,101595.95
2018-05-23T16:59:15.108Z,101602.30
2018-05-23T17:01:40.929Z,101602.11
2018-05-23T17:04:07.548Z,101615.63
2018-05-23T17:06:33.492Z,101619.10
2018-05-23T17:08:59.184Z,101614.72
2018-05-23T17:11:24.984Z,101614.23
2018-05-23T17:13:50.828Z,101620.15
2018-05-23T17:16:16.677Z,101623.30
2018-05-23T17:18:42.596Z,101619.95
2018-05-23T17:21:08.353Z,101627.20
2018-05-23T17:23:34.155Z,101634.05
2018-05-23T17:25:59.962Z,101634.25
2018-05-23T17:28:26.650Z,101633.44
2018-05-23T17:30:52.455Z,101641.37
2018-05-23T17:33:18.305Z,101644.22
2018-05-23T17:35:44.938Z,101641.57
2018-05-23T17:38:10.747Z,101648.90
2018-05-23T17:40:36.589Z,101651.39
2018-05-23T17:43:02.492Z,101652.59
2018-05-23T17:45:28.334Z,101656.64
2018-05-23T17:47:55.098Z,101655.73
2018-05-23T17:50:21.910Z,101660.20
2018-05-23T17:52:48.589Z,101660.53
2018-05-23T17:55:14.434Z,101665.55
2018-05-23T17:57:40.785Z,101663.70
2018-05-23T18:00:06.660Z,101663.08
2018-05-23T18:02:32.465Z,101662.91
2018-05-23T18:04:58.272Z,101661.02
2018-05-23T18:07:24.940Z,101660.23
2018-05-23T18:09:50.740Z,101664.64
2018-05-23T18:12:16.550Z,101662.97
2018-05-23T18:14:42.562Z,101670.38
2018-05-23T18:17:08.365Z,101666.33
2018-05-23T18:19:34.305Z,101665.55
2018-05-23T18:22:00.113Z,101660.61
2018-05-23T18:24:26.040Z,101667.43
2018-05-23T18:26:52.813Z,101666.82
2018-05-23T18:29:18.719Z,101672.95
2018-05-23T18:31:44.534Z,101674.22
2018-05-23T18:34:10.455Z,101670.85
2018-05-23T18:36:36.368Z,101679.50
2018-05-23T18:39:02.790Z,101677.91
2018-05-23T18:41:28.719Z,101672.24
2018-05-23T18:43:54.684Z,101679.66
2018-05-23T18:46:20.505Z,101683.08
2018-05-23T18:48:46.309Z,101684.59
2018-05-23T18:51:12.116Z,101686.08
2018-05-23T18:53:37.942Z,101690.67
2018-05-23T18:56:03.772Z,101697.12
2018-05-23T18:58:29.645Z,101700.80
2018-05-23T19:00:55.608Z,101704.91
2018-05-23T19:03:21.415Z,101708.15
2018-05-23T19:05:48.180Z,101716.72
2018-05-23T19:08:14.082Z,101722.98
2018-05-23T19:10:39.936Z,101724.80
2018-05-23T19:13:05.740Z,101732.36
2018-05-23T19:15:31.544Z,101727.73
2018-05-23T19:17:57.833Z,101729.34
2018-05-23T19:20:23.644Z,101737.50
2018-05-23T19:22:49.540Z,101734.11
2018-05-23T19:25:15.386Z,101738.28
2018-05-23T19:27:41.953Z,101739.05
2018-05-23T19:30:07.757Z,101750.48
2018-05-23T19:32:33.720Z,101748.52
2018-05-23T19:34:59.841Z,101751.33
2018-05-23T19:37:26.177Z,101756.55
2018-05-23T19:39:52.047Z,101758.09
2018-05-23T19:42:17.910Z,101757.06
2018-05-23T19:44:43.757Z,101757.91
2018-05-23T19:47:09.716Z,101764.95
2018-05-23T19:49:36.373Z,101765.84
2018-05-23T19:52:02.288Z,101763.80
2018-05-23T19:54:28.112Z,101767.27
2018-05-23T19:56:53.954Z,101768.36
2018-05-23T19:59:19.882Z,101770.47
2018-05-23T20:01:45.736Z,101771.66
2018-05-23T20:04:11.596Z,101769.14
2018-05-23T20:06:37.400Z,101764.73
2018-05-23T20:09:05.101Z,101765.64
2018-05-23T20:11:31.853Z,101757.00
2018-05-23T20:13:57.707Z,101754.31
2018-05-23T20:16:24.485Z,101759.55
2018-05-23T20:18:50.356Z,101761.45
2018-05-23T20:21:16.236Z,101763.75
2018-05-23T20:23:42.734Z,101764.44
2018-05-23T20:26:08.532Z,101761.58
2018-05-23T20:28:34.332Z,101768.00
2018-05-23T20:31:00.152Z,101769.90
2018-05-23T20:33:26.937Z,101777.55
2018-05-23T20:35:52.811Z,101772.73
2018-05-23T20:38:18.676Z,101776.37
2018-05-23T20:40:44.532Z,101775.95
2018-05-23T20:43:11.321Z,101781.77
2018-05-23T20:45:37.120Z,101788.47
2018-05-23T20:48:02.916Z,101784.12
2018-05-23T20:50:28.721Z,101789.91
2018-05-23T20:52:54.676Z,101780.78
2018-05-23T20:55:20.461Z,101774.70
2018-05-23T20:57:46.309Z,101777.29
2018-05-23T21:00:12.155Z,101776.77
2018-05-23T21:02:38.025Z,101783.34
2018-05-23T21:05:03.905Z,101784.27
2018-05-23T21:07:29.697Z,101781.60
2018-05-23T21:09:55.676Z,101782.42
2018-05-23T21:12:21.485Z,101787.66
2018-05-23T21:14:47.329Z,101792.13
2018-05-23T21:17:13.888Z,101788.31
2018-05-23T21:19:39.757Z,101783.08
2018-05-23T21:22:05.563Z,101791.03
2018-05-23T21:24:31.370Z,101787.17
2018-05-23T21:26:57.200Z,101793.80
2018-05-23T21:29:23.008Z,101791.58
2018-05-23T21:31:48.850Z,101792.63
2018-05-23T21:34:15.540Z,101792.39
2018-05-23T21:36:42.345Z,101787.45
2018-05-23T21:39:09.246Z,101792.03
2018-05-23T21:41:35.172Z,101790.80
2018-05-23T21:44:01.142Z,101791.42
2018-05-23T21:46:26.944Z,101786.73
2018-05-23T21:48:53.636Z,101784.71
2018-05-23T21:51:19.441Z,101787.18
2018-05-23T21:53:45.312Z,101789.32
2018-05-23T21:56:11.113Z,101794.44
2018-05-23T21:58:38.134Z,101795.11
2018-05-23T22:01:03.940Z,101794.05
2018-05-23T22:03:29.744Z,101801.34
2018-05-23T22:05:56.173Z,101803.21
2018-05-23T22:08:21.976Z,101801.05
2018-05-23T22:10:47.780Z,101799.75
2018-05-23T22:13:13.580Z,101795.73
2018-05-23T22:15:39.512Z,101803.97
2018-05-23T22:18:05.313Z,101803.70
2018-05-23T22:20:32.084Z,101800.92
2018-05-23T22:22:57.880Z,101803.48
2018-05-23T22:25:23.680Z,101800.10
2018-05-23T22:27:50.328Z,101804.50
2018-05-23T22:30:16.209Z,101803.23
2018-05-23T22:32:42.813Z,101805.47
2018-05-23T22:35:09.250Z,101806.08
2018-05-23T22:37:35.052Z,101799.44
2018-05-23T22:40:00.852Z,101803.23
2018-05-23T22:42:26.657Z,101806.28
2018-05-23T22:44:52.459Z,101804.81
2018-05-23T22:47:18.261Z,101804.05
2018-05-23T22:49:44.065Z,101804.17
2018-05-23T22:52:10.836Z,101812.43
2018-05-23T22:54:37.408Z,101815.53
2018-05-23T22:57:03.203Z,101823.16
2018-05-23T22:59:29.794Z,101821.56
2018-05-23T23:01:56.603Z,101827.47
2018-05-23T23:04:22.400Z,101828.58
2018-05-23T23:06:48.208Z,101828.91
2018-05-23T23:09:14.009Z,101825.30
2018-05-23T23:11:39.810Z,101832.55
2018-05-23T23:14:05.616Z,101830.81
2018-05-23T23:16:31.417Z,101832.50
2018-05-23T23:18:57.296Z,101834.42
2018-05-23T23:21:23.077Z,101830.60
2018-05-23T23:23:48.884Z,101840.69
2018-05-23T23:26:14.688Z,101839.72
2018-05-23T23:28:40.500Z,101842.02
2018-05-23T23:31:06.296Z,101846.63
2018-05-23T23:33:32.200Z,101849.97
2018-05-23T23:35:58.882Z,101858.29
2018-05-23T23:38:25.644Z,101857.41
2018-05-23T23:40:51.479Z,101863.91
2018-05-23T23:43:17.320Z,101865.16
2018-05-23T23:45:43.160Z,101869.31
2018-05-23T23:48:09.965Z,101873.53
2018-05-23T23:50:36.793Z,101873.98
2018-05-23T23:53:02.604Z,101881.78
2018-05-23T23:55:29.282Z,101881.09
2018-05-23T23:57:55.500Z,101884.22
